Time;durP1;ratioP1;P1;durP2;ratioP2;P2;SDS_P1;SDS_P2;PMS_P1;PMS_P2;Temp;Humidity;BMP_temperature;BMP_pressure;BME280_temperature;BME280_humidity;BME280_pressure;Samples;Min_cycle;Max_cycle;Signal;HPM_P1;HPM_P2
2021/09/29 00:02:19;;;;;;;13.43;5.73;;;;;;;16.01;100.00;101538.44;5085376;28;20048;-61
2021/09/29 00:04:45;;;;;;;14.43;5.50;;;;;;;16.14;100.00;101527.56;5075760;28;20307;-61
2021/09/29 00:07:11;;;;;;;14.68;5.53;;;;;;;16.04;100.00;101522.66;5089834;28;20498;-61
2021/09/29 00:09:36;;;;;;;6.90;4.50;;;;;;;15.87;100.00;101529.53;5060699;28;20044;-59
2021/09/29 00:12:03;;;;;;;10.00;5.23;;;;;;;16.05;100.00;101521.59;5095957;28;20126;-61
2021/09/29 00:14:29;;;;;;;14.03;5.13;;;;;;;16.08;100.00;101520.31;5093660;28;20496;-63
2021/09/29 00:16:54;;;;;;;13.73;5.10;;;;;;;15.48;100.00;101514.09;5057270;28;20285;-61
2021/09/29 00:19:20;;;;;;;11.17;5.20;;;;;;;14.23;100.00;101509.34;5049409;28;20119;-61
2021/09/29 00:21:46;;;;;;;13.02;5.78;;;;;;;15.52;100.00;101517.22;5075820;28;20273;-61
2021/09/29 00:24:11;;;;;;;13.05;5.88;;;;;;;15.62;100.00;101504.09;5075200;28;20047;-61
2021/09/29 00:26:37;;;;;;;11.10;5.45;;;;;;;15.53;100.00;101500.00;5070983;28;20036;-53
2021/09/29 00:29:02;;;;;;;18.67;5.77;;;;;;;15.60;100.00;101503.50;5077553;28;20028;-60
2021/09/29 00:34:06;;;;;;;11.23;5.53;;;;;;;15.41;100.00;101496.28;5075240;28;20266;-61
2021/09/29 00:36:33;;;;;;;17.30;7.80;;;;;;;15.49;100.00;101486.13;5094236;28;20761;-60
2021/09/29 00:38:59;;;;;;;10.00;5.30;;;;;;;15.70;100.00;101484.16;5094955;28;20276;-61
2021/09/29 00:41:24;;;;;;;13.27;5.40;;;;;;;15.57;100.00;101476.13;5095616;28;20280;-62
2021/09/29 00:43:50;;;;;;;14.40;6.43;;;;;;;15.45;100.00;101481.34;5076641;28;20102;-60
2021/09/29 00:46:15;;;;;;;10.47;5.33;;;;;;;15.68;100.00;101463.84;5095276;28;20281;-61
2021/09/29 00:48:41;;;;;;;14.80;6.07;;;;;;;15.53;100.00;101462.25;5074968;28;20104;-60
2021/09/29 00:51:08;;;;;;;12.52;6.40;;;;;;;15.34;100.00;101467.50;5078109;28;20273;-61
2021/09/29 00:53:34;;;;;;;15.07;6.10;;;;;;;15.46;100.00;101456.91;5077668;28;20043;-61
2021/09/29 00:56:00;;;;;;;13.35;6.05;;;;;;;15.29;100.00;101466.47;5056862;28;20276;-61
2021/09/29 00:58:25;;;;;;;17.75;6.25;;;;;;;15.27;100.00;101463.16;5077274;28;20115;-60
2021/09/29 01:00:51;;;;;;;19.90;6.35;;;;;;;15.33;100.00;101455.06;5095108;28;20051;-62
2021/09/29 01:03:16;;;;;;;11.63;6.10;;;;;;;15.27;100.00;101438.91;5076591;28;20028;-61
2021/09/29 01:05:46;;;;;;;15.70;6.20;;;;;;;15.15;100.00;101438.75;5094633;28;20055;-60
2021/09/29 01:08:14;;;;;;;10.47;5.73;;;;;;;15.22;100.00;101444.13;5094640;28;20044;-61
2021/09/29 01:10:52;;;;;;;16.63;5.60;;;;;;;15.23;100.00;101433.16;5094989;28;20263;-61
2021/09/29 01:13:37;;;;;;;15.97;6.63;;;;;;;15.11;100.00;101434.81;5094955;28;20280;-61
2021/09/29 01:16:05;;;;;;;18.03;7.00;;;;;;;15.20;100.00;101429.00;5094518;28;20308;-61
2021/09/29 01:18:39;;;;;;;15.33;6.43;;;;;;;15.12;100.00;101423.00;5076499;28;20287;-61
2021/09/29 01:21:09;;;;;;;16.97;6.60;;;;;;;15.06;100.00;101430.06;5076629;28;20329;-60
2021/09/29 01:24:04;;;;;;;12.90;8.07;;;;;;;15.19;100.00;101413.03;5094693;28;20289;-60
2021/09/29 01:26:36;;;;;;;17.50;7.33;;;;;;;15.13;100.00;101405.81;5076332;28;20359;-61
2021/09/29 01:29:08;;;;;;;16.03;7.40;;;;;;;15.21;100.00;101402.88;5076042;28;20277;-61
2021/09/29 01:31:35;;;;;;;16.30;6.47;;;;;;;15.25;100.00;101406.81;5094489;28;20279;-61
2021/09/29 01:34:01;;;;;;;17.30;6.80;;;;;;;15.13;100.00;101405.81;5042847;28;20755;-61
2021/09/29 01:36:27;;;;;;;10.18;5.78;;;;;;;14.99;100.00;101396.94;5076462;28;20269;-61
2021/09/29 01:38:56;;;;;;;11.00;6.13;;;;;;;15.04;100.00;101389.03;5094113;28;20108;-61
2021/09/29 01:41:30;;;;;;;16.93;5.60;;;;;;;14.98;100.00;101390.72;5075958;28;20040;-61
2021/09/29 01:43:57;;;;;;;10.77;6.00;;;;;;;15.09;100.00;101383.84;5093963;28;20295;-61
2021/09/29 01:46:28;;;;;;;14.43;6.57;;;;;;;15.18;100.00;101376.34;5076457;28;20269;-62
2021/09/29 01:49:23;;;;;;;14.13;6.77;;;;;;;14.96;100.00;101381.22;5093713;28;20720;-61
2021/09/29 01:51:51;;;;;;;15.87;6.73;;;;;;;15.08;100.00;101370.59;5077011;28;20355;-61
2021/09/29 01:54:19;;;;;;;14.10;6.53;;;;;;;15.03;100.00;101376.63;5093903;28;20273;-62
2021/09/29 01:56:45;;;;;;;13.20;7.23;;;;;;;15.02;100.00;101370.41;5094030;28;20618;-60
2021/09/29 01:59:11;;;;;;;10.73;6.30;;;;;;;14.99;100.00;101362.78;5094205;28;20268;-61
2021/09/29 02:01:41;;;;;;;17.45;6.80;;;;;;;15.00;100.00;101366.28;5094121;28;20476;-61
2021/09/29 02:04:09;;;;;;;15.47;6.73;;;;;;;14.97;100.00;101364.81;5093801;28;20456;-60
2021/09/29 02:06:48;;;;;;;11.00;6.40;;;;;;;14.86;100.00;101355.53;5093908;28;20248;-61
2021/09/29 02:09:15;;;;;;;15.43;5.97;;;;;;;14.96;100.00;101354.28;5094138;28;20273;-62
2021/09/29 02:11:41;;;;;;;15.63;6.57;;;;;;;15.09;100.00;101339.94;5075574;28;20313;-61
2021/09/29 02:14:08;;;;;;;14.93;6.70;;;;;;;14.89;100.00;101341.66;5093558;28;20036;-61
2021/09/29 02:16:34;;;;;;;13.97;6.97;;;;;;;15.01;100.00;101341.84;5075295;28;20127;-61
2021/09/29 02:18:59;;;;;;;17.60;6.85;;;;;;;15.01;100.00;101341.84;5093501;28;20277;-62
2021/09/29 02:21:25;;;;;;;13.77;6.10;;;;;;;15.01;100.00;101336.44;5075597;28;20043;-61
2021/09/29 02:23:51;;;;;;;11.43;4.97;;;;;;;15.06;100.00;101333.09;5093166;28;20051;-59
2021/09/29 02:26:16;;;;;;;13.10;6.40;;;;;;;15.05;100.00;101310.72;5075168;28;20472;-61
2021/09/29 02:28:42;;;;;;;17.25;6.13;;;;;;;14.81;100.00;101319.53;5093711;28;20406;-61
2021/09/29 02:31:07;;;;;;;14.77;6.90;;;;;;;14.85;100.00;101316.19;5093176;28;20084;-60
2021/09/29 02:33:33;;;;;;;15.27;5.90;;;;;;;14.96;100.00;101305.81;5093418;28;20093;-60
2021/09/29 02:35:58;;;;;;;12.20;6.43;;;;;;;14.97;100.00;101313.66;5092968;28;20043;-62
2021/09/29 02:38:23;;;;;;;13.93;6.13;;;;;;;14.94;100.00;101303.31;5075256;28;20127;-61
2021/09/29 02:40:49;;;;;;;13.33;7.23;;;;;;;15.01;100.00;101314.91;5075363;28;20051;-61
2021/09/29 02:43:15;;;;;;;11.30;6.03;;;;;;;14.90;100.00;101304.78;5092602;28;20675;-61
2021/09/29 02:45:40;;;;;;;11.80;5.60;;;;;;;14.84;100.00;101309.13;5093164;28;20036;-61
2021/09/29 02:48:06;;;;;;;15.52;5.93;;;;;;;14.92;100.00;101305.38;5094024;28;20043;-62
2021/09/29 02:50:31;;;;;;;14.17;5.87;;;;;;;14.84;100.00;101289.47;5093472;28;20127;-60
2021/09/29 02:52:57;;;;;;;11.80;5.50;;;;;;;14.89;100.00;101289.66;5088073;28;20056;-61
2021/09/29 02:55:22;;;;;;;12.90;6.35;;;;;;;15.02;100.00;101295.00;5091562;28;20252;-60
2021/09/29 02:57:50;;;;;;;12.45;6.38;;;;;;;15.08;100.00;101287.09;5085718;28;20090;-60
2021/09/29 03:00:15;;;;;;;14.47;6.57;;;;;;;14.72;100.00;101292.81;5047776;28;20040;-60
2021/09/29 03:02:42;;;;;;;17.23;5.15;;;;;;;14.95;100.00;101288.81;5075844;28;20641;-61
2021/09/29 03:05:07;;;;;;;16.85;6.15;;;;;;;13.79;100.00;101273.06;5072968;28;20037;-61
2021/09/29 03:07:33;;;;;;;9.20;5.13;;;;;;;14.88;100.00;101274.53;5076239;28;20187;-61
2021/09/29 03:09:58;;;;;;;14.00;5.33;;;;;;;15.32;100.00;101261.25;5074248;28;20542;-61
2021/09/29 03:12:24;;;;;;;11.80;5.13;;;;;;;15.52;100.00;101269.22;5092952;28;20089;-61
2021/09/29 03:14:50;;;;;;;15.60;5.15;;;;;;;14.09;100.00;101267.28;5074933;28;20491;-62
2021/09/29 03:17:16;;;;;;;17.02;5.55;;;;;;;14.01;100.00;101252.16;5092703;28;20427;-61
2021/09/29 03:19:41;;;;;;;13.55;4.97;;;;;;;14.07;100.00;101265.81;5092687;28;20036;-62
2021/09/29 03:22:07;;;;;;;15.70;5.88;;;;;;;15.39;100.00;101250.44;5092905;28;20051;-61
2021/09/29 03:24:32;;;;;;;11.07;5.37;;;;;;;15.52;100.00;101249.53;5092554;28;20040;-60
2021/09/29 03:26:58;;;;;;;10.88;4.95;;;;;;;15.49;100.00;101251.63;5084146;28;20465;-61
2021/09/29 03:29:23;;;;;;;13.82;5.53;;;;;;;15.42;100.00;101239.22;5072646;28;20037;-62
2021/09/29 03:31:49;;;;;;;21.17;5.75;;;;;;;15.28;100.00;101242.03;5072320;28;20040;-62
2021/09/29 03:34:14;;;;;;;14.63;5.67;;;;;;;13.67;100.00;101245.16;5072407;28;20060;-61
2021/09/29 03:36:40;;;;;;;10.10;5.50;;;;;;;15.15;100.00;101250.19;5072446;28;20040;-61
2021/09/29 03:39:06;;;;;;;20.65;6.00;;;;;;;13.59;100.00;101244.28;5072092;28;20319;-62
2021/09/29 03:41:32;;;;;;;14.05;4.88;;;;;;;14.71;100.00;101237.31;5072541;28;20037;-62
2021/09/29 03:43:57;;;;;;;11.75;4.50;;;;;;;15.24;100.00;101242.66;5054616;28;20227;-60
2021/09/29 03:46:23;;;;;;;9.65;5.03;;;;;;;15.46;100.00;101245.84;5072146;28;20058;-62
2021/09/29 03:48:48;;;;;;;11.00;5.57;;;;;;;15.48;100.00;101241.88;5054389;28;20123;-62
2021/09/29 03:51:14;;;;;;;10.68;4.35;;;;;;;15.49;100.00;101240.03;5054430;28;20036;-61
2021/09/29 03:53:40;;;;;;;10.23;4.70;;;;;;;15.55;100.00;101239.13;5075256;28;20040;-62
2021/09/29 03:56:06;;;;;;;14.98;5.25;;;;;;;15.75;100.00;101238.16;5058315;28;20037;-61
2021/09/29 03:58:31;;;;;;;7.40;3.75;;;;;;;15.47;100.00;101221.34;5046128;28;20060;-61
2021/09/29 04:00:57;;;;;;;8.75;4.53;;;;;;;15.56;100.00;101232.69;5096405;28;20070;-61
2021/09/29 04:03:23;;;;;;;11.65;4.95;;;;;;;15.57;100.00;101226.25;5061329;28;20127;-61
2021/09/29 04:05:49;;;;;;;15.63;4.70;;;;;;;15.72;100.00;101228.63;5078202;28;20036;-61
2021/09/29 04:08:16;;;;;;;10.48;4.32;;;;;;;15.88;100.00;101234.53;5095687;28;20055;-61
2021/09/29 04:10:41;;;;;;;7.17;4.23;;;;;;;15.76;100.00;101210.97;5078214;28;20383;-62
2021/09/29 04:13:07;;;;;;;14.82;4.22;;;;;;;15.79;100.00;101220.50;5076435;28;20284;-60
2021/09/29 04:15:34;;;;;;;6.57;4.40;;;;;;;15.85;100.00;101233.09;5058038;28;20044;-61
2021/09/29 04:18:01;;;;;;;11.23;4.97;;;;;;;15.71;100.00;101226.97;5075391;28;20104;-61
2021/09/29 04:20:26;;;;;;;10.82;4.85;;;;;;;15.81;100.00;101223.78;5075211;28;20733;-61
2021/09/29 04:22:53;;;;;;;15.57;4.70;;;;;;;15.62;100.00;101229.13;5078970;28;20040;-61
2021/09/29 04:25:20;;;;;;;13.23;4.43;;;;;;;15.60;100.00;101217.72;5075258;28;20048;-60
2021/09/29 04:27:45;;;;;;;12.67;5.17;;;;;;;15.83;100.00;101221.69;5075211;28;20414;-60
2021/09/29 04:30:14;;;;;;;14.73;5.28;;;;;;;15.75;100.00;101217.41;5057169;28;20028;-61
2021/09/29 04:32:41;;;;;;;11.73;4.97;;;;;;;15.66;100.00;101218.72;5075744;28;20037;-62
2021/09/29 04:35:07;;;;;;;23.67;6.57;;;;;;;15.70;100.00;101213.75;5074950;28;20258;-60
2021/09/29 04:37:33;;;;;;;19.15;5.72;;;;;;;15.54;100.00;101217.78;5083596;28;20284;-61
2021/09/29 04:39:58;;;;;;;12.18;5.40;;;;;;;15.43;100.00;101211.22;5079291;28;20032;-61
2021/09/29 04:42:24;;;;;;;17.40;5.93;;;;;;;15.56;100.00;101211.13;5077599;28;20054;-61
2021/09/29 04:44:49;;;;;;;12.13;5.38;;;;;;;15.44;100.00;101218.28;5095488;28;20035;-62
2021/09/29 04:47:15;;;;;;;20.37;5.90;;;;;;;15.31;100.00;101220.03;5094631;28;20067;-61
2021/09/29 04:49:41;;;;;;;16.55;5.07;;;;;;;15.24;100.00;101224.66;5095431;28;20024;-61
2021/09/29 04:52:07;;;;;;;14.97;5.23;;;;;;;15.20;100.00;101223.41;5094674;28;20036;-56
2021/09/29 04:54:32;;;;;;;18.55;5.75;;;;;;;15.25;100.00;101223.59;5094856;28;20303;-61
2021/09/29 04:56:58;;;;;;;14.38;5.65;;;;;;;15.21;100.00;101216.97;5076810;28;20144;-61
2021/09/29 04:59:23;;;;;;;13.27;5.60;;;;;;;15.13;100.00;101219.94;5060043;28;20460;-61
2021/09/29 05:01:49;;;;;;;17.83;5.75;;;;;;;15.02;100.00;101214.22;5076693;28;20044;-61
2021/09/29 05:04:15;;;;;;;16.23;5.55;;;;;;;15.02;100.00;101208.81;5076450;28;20120;-60
2021/09/29 05:06:41;;;;;;;17.00;6.35;;;;;;;15.03;100.00;101205.09;5076803;28;20202;-61
2021/09/29 05:09:07;;;;;;;16.55;5.43;;;;;;;15.07;100.00;101204.66;5076655;28;20051;-60
2021/09/29 05:11:49;;;;;;;18.40;6.32;;;;;;;15.04;100.00;101198.66;5094734;28;20036;-61
2021/09/29 05:14:15;;;;;;;14.03;5.83;;;;;;;14.98;100.00;101190.59;5076516;28;20063;-59
2021/09/29 05:16:41;;;;;;;23.98;6.03;;;;;;;14.93;100.00;101185.84;5094835;28;20259;-60
2021/09/29 05:19:07;;;;;;;28.75;6.55;;;;;;;15.01;100.00;101191.00;5074672;28;20032;-61
2021/09/29 05:21:33;;;;;;;15.33;5.67;;;;;;;14.93;100.00;101188.56;5046826;28;20036;-60
2021/09/29 05:23:59;;;;;;;14.20;6.00;;;;;;;15.17;100.00;101186.13;5076371;28;20114;-61
2021/09/29 05:26:25;;;;;;;15.10;5.78;;;;;;;15.02;100.00;101184.59;5094134;28;20398;-61
2021/09/29 05:28:51;;;;;;;13.40;5.60;;;;;;;15.10;100.00;101188.03;5088855;28;20036;-60
2021/09/29 05:31:18;;;;;;;10.23;5.05;;;;;;;15.22;100.00;101180.09;5055838;28;20425;-60
2021/09/29 05:33:44;;;;;;;19.17;5.83;;;;;;;15.04;100.00;101189.72;5073425;28;20169;-59
2021/09/29 05:36:10;;;;;;;13.35;5.57;;;;;;;15.20;100.00;101185.69;5075761;28;20396;-59
2021/09/29 05:38:35;;;;;;;12.82;4.82;;;;;;;15.25;100.00;101179.66;5094263;28;20123;-60
2021/09/29 05:41:01;;;;;;;16.20;5.40;;;;;;;15.09;100.00;101191.78;5093982;28;20258;-59
2021/09/29 05:43:26;;;;;;;12.60;5.73;;;;;;;15.02;100.00;101198.03;5093803;28;20047;-61
2021/09/29 05:45:52;;;;;;;14.03;4.87;;;;;;;15.15;100.00;101186.38;5072966;28;20032;-60
2021/09/29 05:48:19;;;;;;;18.67;5.38;;;;;;;14.91;100.00;101188.78;5064134;28;20123;-61
2021/09/29 05:50:44;;;;;;;16.67;5.78;;;;;;;15.01;100.00;101188.31;5083823;28;20039;-60
2021/09/29 05:53:10;;;;;;;13.55;4.85;;;;;;;15.10;100.00;101167.31;5074325;28;20039;-59
2021/09/29 05:55:35;;;;;;;12.27;4.93;;;;;;;15.18;100.00;101179.69;5090353;28;20032;-61
2021/09/29 05:58:01;;;;;;;9.73;5.00;;;;;;;15.01;100.00;101184.78;5090937;28;20046;-61
2021/09/29 06:00:26;;;;;;;12.13;4.83;;;;;;;15.19;100.00;101178.66;5089930;28;20086;-61
2021/09/29 06:02:52;;;;;;;13.88;4.53;;;;;;;15.08;100.00;101177.47;5090804;28;20640;-61
2021/09/29 06:05:18;;;;;;;15.40;4.97;;;;;;;15.34;100.00;101183.75;5091692;28;20036;-60
2021/09/29 06:07:43;;;;;;;13.45;4.70;;;;;;;15.12;100.00;101175.19;5072341;28;20040;-61
2021/09/29 06:10:09;;;;;;;12.75;4.43;;;;;;;15.16;100.00;101177.22;5092892;28;20071;-61
2021/09/29 06:12:36;;;;;;;12.90;5.20;;;;;;;15.34;100.00;101179.16;5064788;28;20043;-56
2021/09/29 06:15:01;;;;;;;;;;;;;;;15.01;100.00;101180.25;5073975;28;20123;-60
2021/09/29 06:17:37;;;;;;;11.27;4.10;;;;;;;15.24;100.00;101172.63;5083474;28;20003;-61
2021/09/29 06:20:04;;;;;;;13.87;4.57;;;;;;;15.15;100.00;101186.38;5085760;28;20043;-61
2021/09/29 06:22:29;;;;;;;13.63;4.80;;;;;;;15.11;100.00;101190.53;5063258;28;20315;-59
2021/09/29 06:24:55;;;;;;;12.47;4.20;;;;;;;14.99;100.00;101176.09;5065394;28;20277;-60
2021/09/29 06:27:20;;;;;;;13.45;4.38;;;;;;;15.27;100.00;101181.09;5085650;28;20028;-61
2021/09/29 06:29:46;;;;;;;10.05;4.00;;;;;;;15.21;100.00;101176.56;5093187;28;20036;-61
2021/09/29 06:32:11;;;;;;;7.47;4.30;;;;;;;15.11;100.00;101178.94;5090263;28;20051;-61
2021/09/29 06:34:37;;;;;;;13.73;4.15;;;;;;;15.24;100.00;101183.38;5075099;28;20781;-61
2021/09/29 06:37:03;;;;;;;10.85;4.20;;;;;;;15.29;100.00;101180.88;5093428;28;20115;-61
2021/09/29 06:39:29;;;;;;;6.43;3.42;;;;;;;15.27;100.00;101177.56;5093255;28;20036;-61
2021/09/29 06:41:55;;;;;;;15.32;3.90;;;;;;;15.38;100.00;101189.50;5093559;28;20089;-61
2021/09/29 06:44:21;;;;;;;12.05;3.80;;;;;;;15.31;100.00;101178.78;5092721;28;20036;-59
2021/09/29 06:46:46;;;;;;;19.38;4.20;;;;;;;15.20;100.00;101183.00;5083403;28;20062;-61
2021/09/29 06:49:12;;;;;;;8.30;3.38;;;;;;;14.99;100.00;101187.72;5091853;28;20123;-60
2021/09/29 06:51:38;;;;;;;10.67;3.50;;;;;;;15.09;100.00;101187.22;5066701;28;20045;-61
2021/09/29 06:54:04;;;;;;;12.63;4.18;;;;;;;15.08;100.00;101190.13;5072802;28;20274;-59
2021/09/29 06:56:29;;;;;;;20.88;4.57;;;;;;;14.78;100.00;101199.63;5043240;28;20033;-59
2021/09/29 06:58:55;;;;;;;18.93;4.47;;;;;;;14.75;100.00;101198.16;5072499;28;20127;-59
2021/09/29 07:01:20;;;;;;;10.30;4.80;;;;;;;15.10;100.00;101198.81;5077939;28;20028;-55
2021/09/29 07:03:47;;;;;;;15.00;4.57;;;;;;;14.89;100.00;101192.72;5072886;28;20427;-59
2021/09/29 07:06:13;;;;;;;32.08;5.65;;;;;;;14.96;100.00;101209.66;5060068;28;20084;-59
2021/09/29 07:08:39;;;;;;;45.70;8.93;;;;;;;15.08;100.00;101200.91;5072136;28;20060;-58
2021/09/29 07:11:05;;;;;;;25.67;11.27;;;;;;;14.93;100.00;101204.72;5078065;28;20469;-59
2021/09/29 07:13:31;;;;;;;36.40;9.88;;;;;;;14.89;100.00;101214.25;5072255;28;20045;-59
2021/09/29 07:15:57;;;;;;;24.67;6.55;;;;;;;14.60;100.00;101221.81;5076773;28;20041;-59
2021/09/29 07:18:29;;;;;;;14.35;6.32;;;;;;;14.89;100.00;101204.34;5054983;28;20036;-55
2021/09/29 07:20:55;;;;;;;14.70;5.70;;;;;;;14.89;100.00;101193.56;5077234;28;20041;-59
2021/09/29 07:23:21;;;;;;;13.35;5.15;;;;;;;14.99;100.00;101173.41;5072924;28;20387;-58
2021/09/29 07:25:46;;;;;;;14.15;6.57;;;;;;;15.17;100.00;101175.34;5076564;28;20117;-59
2021/09/29 07:28:12;;;;;;;27.77;9.27;;;;;;;15.27;100.00;101177.56;5068000;28;20039;-59
2021/09/29 07:30:40;;;;;;;16.05;7.20;;;;;;;15.19;100.00;101187.56;5076518;28;20506;-60
2021/09/29 07:33:07;;;;;;;17.10;8.77;;;;;;;15.27;100.00;101191.88;5087719;28;20047;-59
2021/09/29 07:35:32;;;;;;;20.63;10.35;;;;;;;15.33;100.00;101199.06;5086698;28;20363;-59
2021/09/29 07:37:59;;;;;;;30.77;14.90;;;;;;;15.32;100.00;101186.66;5084929;28;20119;-59
2021/09/29 07:40:24;;;;;;;;;;;;;;;15.32;100.00;101191.19;5085086;28;20029;-57
2021/09/29 07:42:50;;;;;;;24.40;10.93;;;;;;;15.25;100.00;101190.44;5059445;28;20026;-59
2021/09/29 07:45:15;;;;;;;16.70;8.82;;;;;;;15.39;100.00;101189.31;5067656;28;20029;-60
2021/09/29 07:47:41;;;;;;;17.15;8.15;;;;;;;15.32;100.00;101185.81;5083399;28;20094;-59
2021/09/29 07:50:08;;;;;;;17.37;9.17;;;;;;;15.38;100.00;101193.03;5085849;28;20111;-59
2021/09/29 07:52:34;;;;;;;28.07;11.80;;;;;;;15.28;100.00;101179.22;5086016;28;20283;-60
2021/09/29 07:54:59;;;;;;;26.45;14.50;;;;;;;15.21;100.00;101179.25;5085383;28;20375;-59
2021/09/29 07:57:25;;;;;;;21.67;11.53;;;;;;;15.14;100.00;101200.03;5085153;28;20439;-55
2021/09/29 07:59:50;;;;;;;21.63;10.93;;;;;;;15.22;100.00;101224.00;5048682;28;20288;-57
2021/09/29 08:02:16;;;;;;;18.73;9.53;;;;;;;15.23;100.00;101227.53;5065060;28;20182;-58
2021/09/29 08:04:41;;;;;;;13.30;6.80;;;;;;;15.34;100.00;101224.97;5066717;28;20036;-58
2021/09/29 08:07:08;;;;;;;20.20;7.67;;;;;;;15.23;100.00;101230.25;5084251;28;20184;-59
2021/09/29 08:09:34;;;;;;;17.58;7.95;;;;;;;15.20;100.00;101221.56;5066545;28;20629;-59
2021/09/29 08:12:01;;;;;;;12.63;6.80;;;;;;;15.39;100.00;101227.03;5083953;28;20094;-58
2021/09/29 08:14:26;;;;;;;13.68;7.50;;;;;;;15.53;100.00;101232.31;5065681;28;20272;-56
2021/09/29 08:16:52;;;;;;;13.23;7.87;;;;;;;15.45;100.00;101233.38;5083350;28;20388;-58
2021/09/29 08:19:17;;;;;;;12.80;8.00;;;;;;;15.43;100.00;101235.47;5066585;28;20343;-59
2021/09/29 08:21:46;;;;;;;14.10;8.50;;;;;;;15.47;100.00;101237.53;5082639;28;20036;-58
2021/09/29 08:24:18;;;;;;;17.73;8.57;;;;;;;15.45;100.00;101233.38;5067074;28;20110;-58
2021/09/29 08:26:59;;;;;;;23.70;9.87;;;;;;;15.42;100.00;101245.44;5081616;28;20264;-58
2021/09/29 08:29:35;;;;;;;19.10;10.80;;;;;;;15.39;100.00;101242.34;5083963;28;20352;-59
2021/09/29 08:43:08;;;;;;;15.43;8.47;;;;;;;15.03;100.00;101242.78;5083989;28;20332;-59
2021/09/29 09:17:35;;;;;;;26.60;9.57;;;;;;;14.62;100.00;101257.44;5074221;28;20322;-56
2021/09/29 09:20:08;;;;;;;27.60;8.60;;;;;;;14.60;100.00;101265.69;5074398;28;20656;-60
2021/09/29 09:22:33;;;;;;;15.73;7.57;;;;;;;14.33;100.00;101267.66;5073909;28;20265;-58
2021/09/29 09:24:59;;;;;;;15.40;8.82;;;;;;;14.47;100.00;101271.94;5074684;28;20342;-60
2021/09/29 09:27:25;;;;;;;16.58;8.07;;;;;;;14.53;100.00;101269.44;5056405;28;20472;-59
2021/09/29 09:29:53;;;;;;;19.17;10.02;;;;;;;14.52;100.00;101282.09;5074412;28;20066;-60
2021/09/29 09:32:23;;;;;;;25.07;9.63;;;;;;;14.34;100.00;101288.94;5056577;28;20048;-60
2021/09/29 09:35:00;;;;;;;14.07;8.27;;;;;;;14.07;100.00;101315.06;5082340;28;20668;-60
2021/09/29 09:37:30;;;;;;;26.63;11.00;;;;;;;14.23;100.00;101303.06;5083361;28;20803;-60
2021/09/29 09:40:09;;;;;;;24.10;11.57;;;;;;;14.20;100.00;101314.22;5065727;28;20314;-61
2021/09/29 09:42:44;;;;;;;31.83;11.10;;;;;;;14.04;100.00;101294.78;5083257;28;20750;-58
2021/09/29 09:45:10;;;;;;;27.17;10.83;;;;;;;14.08;100.00;101302.44;5084064;28;20288;-59
2021/09/29 09:47:39;;;;;;;19.90;10.90;;;;;;;14.32;100.00;101295.59;5065508;28;20306;-58
2021/09/29 09:50:06;;;;;;;24.67;11.00;;;;;;;14.25;100.00;101300.13;5082732;28;20140;-57
2021/09/29 09:52:44;;;;;;;;;;;;;;;14.10;100.00;101301.19;5080551;28;20273;-59
2021/09/29 09:55:10;;;;;;;20.05;9.85;;;;;;;14.29;100.00;101295.97;5083434;28;19948;-58
2021/09/29 09:57:39;;;;;;;18.00;8.63;;;;;;;14.23;100.00;101296.81;5080756;28;20437;-57
2021/09/29 10:00:06;;;;;;;14.70;9.03;;;;;;;14.22;100.00;101317.53;5047068;28;20048;-58
2021/09/29 10:02:42;;;;;;;19.13;8.50;;;;;;;13.97;100.00;101314.63;5064304;28;20284;-59
2021/09/29 10:05:09;;;;;;;19.10;8.53;;;;;;;13.98;100.00;101309.06;5064441;28;20724;-59
2021/09/29 10:07:35;;;;;;;15.50;9.60;;;;;;;14.14;100.00;101325.78;5082085;28;20338;-59
2021/09/29 10:10:17;;;;;;;17.63;8.83;;;;;;;14.24;100.00;101320.84;5081488;28;20372;-58
2021/09/29 10:22:50;;;;;;;15.93;8.57;;;;;;;14.14;100.00;101325.78;5083163;28;20275;-59
2021/09/29 10:26:24;;;;;;;33.20;5.23;;;;;;;13.86;100.00;101343.81;5081527;28;20257;-58
2021/09/29 10:29:05;;;;;;;65.27;6.97;;;;;;;13.79;100.00;101345.63;5084792;28;20338;-59
2021/09/29 10:31:40;;;;;;;20.50;4.40;;;;;;;13.58;100.00;101347.44;5081453;28;20736;-60
2021/09/29 10:34:22;;;;;;;27.00;5.13;;;;;;;13.57;100.00;101342.28;5064899;28;20347;-59
2021/09/29 10:42:26;;;;;;;10.27;4.00;;;;;;;13.41;100.00;101365.75;5082782;28;20289;-58
2021/09/29 10:48:21;;;;;;;28.00;4.27;;;;;;;13.56;100.00;101368.31;5082005;28;20679;-59
2021/09/29 11:02:56;;;;;;;15.83;3.10;;;;;;;13.56;100.00;101394.38;5082101;28;20314;-57
2021/09/29 11:11:03;;;;;;;3.23;2.43;;;;;;;13.29;100.00;101383.50;5086108;28;20276;-57
2021/09/29 11:49:43;;;;;;;12.63;5.67;;;;;;;16.43;100.00;101384.97;5048088;28;20745;-58
2021/09/29 12:11:23;;;;;;;96.60;9.10;;;;;;;16.83;100.00;101377.50;5071687;28;20545;-58
2021/09/29 12:14:00;;;;;;;40.30;6.23;;;;;;;16.82;100.00;101375.84;5071620;28;20281;-60
2021/09/29 12:16:35;;;;;;;7.77;3.77;;;;;;;16.23;100.00;101385.09;5074596;28;20288;-58
2021/09/29 12:19:02;;;;;;;7.23;3.00;;;;;;;15.58;100.00;101391.53;5074940;28;20273;-57
2021/09/29 12:21:32;;;;;;;9.87;3.73;;;;;;;15.60;100.00;101413.72;5075188;28;20763;-58
2021/09/29 12:23:58;;;;;;;25.63;7.03;;;;;;;15.50;100.00;101408.78;5080369;28;20929;-55
2021/09/29 12:26:27;;;;;;;24.58;5.95;;;;;;;15.39;100.00;101417.53;5092534;28;20279;-59
2021/09/29 12:29:01;;;;;;;26.30;6.87;;;;;;;15.84;100.00;101419.41;5092233;28;20047;-57
2021/09/29 12:31:44;;;;;;;30.13;6.93;;;;;;;15.88;100.00;101429.53;5077481;28;20266;-58
2021/09/29 12:34:27;;;;;;;28.87;7.70;;;;;;;16.06;100.00;101411.81;5059055;28;20277;-58
2021/09/29 12:36:52;;;;;;;21.13;5.93;;;;;;;16.02;100.00;101424.91;5056254;28;20361;-57
2021/09/29 12:39:25;;;;;;;29.65;5.78;;;;;;;16.45;100.00;101427.91;5074260;28;20344;-59
2021/09/29 12:41:56;;;;;;;16.07;4.53;;;;;;;17.05;100.00;101421.16;5078664;28;20044;-58
2021/09/29 12:44:22;;;;;;;21.37;5.07;;;;;;;17.56;100.00;101435.31;5094706;28;20315;-58
2021/09/29 12:47:22;;;;;;;16.67;3.42;;;;;;;17.52;100.00;101431.41;5076537;28;20748;-60
2021/09/29 12:49:48;;;;;;;7.80;2.10;;;;;;;18.20;100.00;101421.31;5094964;28;20043;-59
2021/09/29 12:52:30;;;;;;;9.05;2.33;;;;;;;19.68;100.00;101436.75;5094111;28;20265;-59
2021/09/29 12:54:57;;;;;;;4.93;1.50;;;;;;;21.03;100.00;101434.38;5064727;28;20046;-58
2021/09/29 12:57:24;;;;;;;6.73;1.23;;;;;;;20.25;100.00;101451.38;5079632;28;20143;-59
2021/09/29 12:59:50;;;;;;;13.67;1.27;;;;;;;21.94;100.00;101447.66;5074213;28;20546;-59
2021/09/29 13:02:16;;;;;;;5.50;1.77;;;;;;;22.02;100.00;101457.25;5071414;28;20081;-60
2021/09/29 13:04:42;;;;;;;4.47;1.10;;;;;;;20.81;95.91;101452.53;5063247;28;20509;-59
2021/09/29 13:07:07;;;;;;;4.75;0.90;;;;;;;21.46;100.00;101463.72;5094198;28;20091;-60
2021/09/29 13:09:32;;;;;;;4.22;1.00;;;;;;;22.72;90.14;101468.22;5082767;28;20423;-58
2021/09/29 13:11:58;;;;;;;5.35;1.30;;;;;;;22.96;83.34;101465.09;5056115;28;20048;-60
2021/09/29 13:14:24;;;;;;;3.22;0.90;;;;;;;22.77;77.35;101475.59;5073980;28;20118;-59
2021/09/29 13:16:49;;;;;;;5.57;1.13;;;;;;;23.92;69.63;101481.28;5081288;28;20494;-60
2021/09/29 13:19:19;;;;;;;4.32;1.25;;;;;;;23.51;77.28;101478.44;5094259;28;20036;-60
2021/09/29 13:22:08;;;;;;;4.17;1.10;;;;;;;23.23;65.74;101499.59;5075494;28;20052;-60
2021/09/29 13:27:25;;;;;;;3.80;1.00;;;;;;;25.15;65.14;101508.09;5093903;28;20068;-57
2021/09/29 13:38:03;;;;;;;5.80;1.50;;;;;;;23.52;49.20;101501.13;5072815;28;20048;-59
2021/09/29 13:40:28;;;;;;;;;;;;;;;23.98;48.68;101514.06;5073633;28;20547;-58
2021/09/29 13:42:54;;;;;;;6.60;1.50;;;;;;;24.14;48.92;101523.97;5073482;28;19921;-59
2021/09/29 13:45:19;;;;;;;;;;;;;;;24.87;50.62;101535.78;5073757;28;20456;-59